sensor_id;sensor_type;location;lat;lon;timestamp;pressure;altitude;pressure_sealevel;temperature;humidity
71476;BME280;59286;59.274;17.974;2023-04-19T00:02:17;103250.53;;;3.73;70.21
71476;BME280;59286;59.274;17.974;2023-04-19T00:04:43;103250.28;;;3.68;70.04
71476;BME280;59286;59.274;17.974;2023-04-19T00:07:10;103254.22;;;3.64;70.26
71476;BME280;59286;59.274;17.974;2023-04-19T00:09:35;103254.41;;;3.63;70.55
71476;BME280;59286;59.274;17.974;2023-04-19T00:12:04;103254.59;;;3.61;70.45
71476;BME280;59286;59.274;17.974;2023-04-19T00:14:30;103256.38;;;3.61;70.90
71476;BME280;59286;59.274;17.974;2023-04-19T00:16:55;103256.91;;;3.56;70.86
71476;BME280;59286;59.274;17.974;2023-04-19T00:19:21;103252.47;;;3.50;71.60
71476;BME280;59286;59.274;17.974;2023-04-19T00:21:47;103235.75;;;3.38;71.49
71476;BME280;59286;59.274;17.974;2023-04-19T00:24:13;103245.41;;;3.44;71.44
71476;BME280;59286;59.274;17.974;2023-04-19T00:26:38;103238.53;;;3.37;71.12
71476;BME280;59286;59.274;17.974;2023-04-19T00:29:03;103233.56;;;3.35;71.91
71476;BME280;59286;59.274;17.974;2023-04-19T00:31:29;103237.47;;;3.31;72.00
71476;BME280;59286;59.274;17.974;2023-04-19T00:33:55;103244.63;;;3.29;72.33
71476;BME280;59286;59.274;17.974;2023-04-19T00:36:21;103247.03;;;3.31;72.55
71476;BME280;59286;59.274;17.974;2023-04-19T00:38:46;103238.56;;;3.22;72.46
71476;BME280;59286;59.274;17.974;2023-04-19T00:41:11;103235.34;;;3.20;72.61
71476;BME280;59286;59.274;17.974;2023-04-19T00:43:37;103240.88;;;3.17;73.03
71476;BME280;59286;59.274;17.974;2023-04-19T00:46:02;103247.94;;;3.23;72.99
71476;BME280;59286;59.274;17.974;2023-04-19T00:48:28;103234.47;;;3.13;72.82
71476;BME280;59286;59.274;17.974;2023-04-19T00:50:54;103243.84;;;3.14;73.64
71476;BME280;59286;59.274;17.974;2023-04-19T00:53:20;103248.41;;;3.12;73.30
71476;BME280;59286;59.274;17.974;2023-04-19T00:55:46;103240.38;;;3.07;73.56
71476;BME280;59286;59.274;17.974;2023-04-19T00:58:12;103247.94;;;3.09;73.65
71476;BME280;59286;59.274;17.974;2023-04-19T01:00:37;103237.84;;;2.99;73.71
71476;BME280;59286;59.274;17.974;2023-04-19T01:03:02;103240.25;;;3.01;73.58
71476;BME280;59286;59.274;17.974;2023-04-19T01:05:29;103240.19;;;2.94;74.27
71476;BME280;59286;59.274;17.974;2023-04-19T01:07:54;103232.31;;;2.87;74.31
71476;BME280;59286;59.274;17.974;2023-04-19T01:10:20;103242.59;;;2.95;74.34
71476;BME280;59286;59.274;17.974;2023-04-19T01:12:45;103243.41;;;2.96;74.22
71476;BME280;59286;59.274;17.974;2023-04-19T01:15:11;103235.91;;;2.86;74.60
71476;BME280;59286;59.274;17.974;2023-04-19T01:17:36;103251.44;;;2.86;74.83
71476;BME280;59286;59.274;17.974;2023-04-19T01:20:03;103247.41;;;2.84;74.51
71476;BME280;59286;59.274;17.974;2023-04-19T01:22:31;103247.59;;;2.82;75.19
71476;BME280;59286;59.274;17.974;2023-04-19T01:24:56;103246.34;;;2.78;75.02
71476;BME280;59286;59.274;17.974;2023-04-19T01:27:22;103254.91;;;2.79;75.30
71476;BME280;59286;59.274;17.974;2023-04-19T01:29:48;103245.63;;;2.70;75.65
71476;BME280;59286;59.274;17.974;2023-04-19T01:32:13;103240.34;;;2.63;76.16
71476;BME280;59286;59.274;17.974;2023-04-19T01:34:39;103247.66;;;2.60;75.92
71476;BME280;59286;59.274;17.974;2023-04-19T01:37:06;103245.88;;;2.60;76.34
71476;BME280;59286;59.274;17.974;2023-04-19T01:39:31;103251.56;;;2.56;76.52
71476;BME280;59286;59.274;17.974;2023-04-19T01:41:56;103248.34;;;2.54;76.61
71476;BME280;59286;59.274;17.974;2023-04-19T01:44:22;103247.44;;;2.47;76.82
71476;BME280;59286;59.274;17.974;2023-04-19T01:46:47;103248.69;;;2.36;77.63
71476;BME280;59286;59.274;17.974;2023-04-19T01:49:12;103240.09;;;2.36;77.02
71476;BME280;59286;59.274;17.974;2023-04-19T01:51:38;103259.47;;;2.40;77.48
71476;BME280;59286;59.274;17.974;2023-04-19T01:54:03;103263.75;;;2.33;77.88
71476;BME280;59286;59.274;17.974;2023-04-19T01:56:29;103251.50;;;2.27;77.64
71476;BME280;59286;59.274;17.974;2023-04-19T01:58:55;103258.00;;;2.23;77.68
71476;BME280;59286;59.274;17.974;2023-04-19T02:01:20;103250.59;;;2.20;77.84
71476;BME280;59286;59.274;17.974;2023-04-19T02:03:45;103256.28;;;2.15;77.83
71476;BME280;59286;59.274;17.974;2023-04-19T02:06:12;103261.63;;;2.14;78.69
71476;BME280;59286;59.274;17.974;2023-04-19T02:08:38;103257.13;;;2.08;78.82
71476;BME280;59286;59.274;17.974;2023-04-19T02:11:07;103258.59;;;2.10;78.90
71476;BME280;59286;59.274;17.974;2023-04-19T02:13:33;103261.97;;;2.11;78.57
71476;BME280;59286;59.274;17.974;2023-04-19T02:15:59;103244.25;;;1.99;79.31
71476;BME280;59286;59.274;17.974;2023-04-19T02:18:26;103251.31;;;2.06;78.88
71476;BME280;59286;59.274;17.974;2023-04-19T02:20:54;103264.25;;;2.06;78.75
71476;BME280;59286;59.274;17.974;2023-04-19T02:23:19;103252.09;;;1.91;79.04
71476;BME280;59286;59.274;17.974;2023-04-19T02:25:45;103245.19;;;1.84;79.56
71476;BME280;59286;59.274;17.974;2023-04-19T02:28:10;103260.34;;;1.87;79.93
71476;BME280;59286;59.274;17.974;2023-04-19T02:30:36;103265.69;;;1.85;80.16
71476;BME280;59286;59.274;17.974;2023-04-19T02:33:01;103248.78;;;1.75;78.99
71476;BME280;59286;59.274;17.974;2023-04-19T02:35:27;103249.00;;;1.65;80.93
71476;BME280;59286;59.274;17.974;2023-04-19T02:37:52;103251.91;;;1.62;81.29
71476;BME280;59286;59.274;17.974;2023-04-19T02:40:18;103250.31;;;1.61;80.32
71476;BME280;59286;59.274;17.974;2023-04-19T02:42:43;103246.91;;;1.61;80.91
71476;BME280;59286;59.274;17.974;2023-04-19T02:45:09;103251.41;;;1.67;80.24
71476;BME280;59286;59.274;17.974;2023-04-19T02:47:34;103246.16;;;1.52;80.76
71476;BME280;59286;59.274;17.974;2023-04-19T02:50:00;103246.19;;;1.44;81.05
71476;BME280;59286;59.274;17.974;2023-04-19T02:52:26;103257.47;;;1.51;81.43
71476;BME280;59286;59.274;17.974;2023-04-19T02:54:52;103246.88;;;1.38;81.50
71476;BME280;59286;59.274;17.974;2023-04-19T02:57:17;103252.00;;;1.46;81.96
71476;BME280;59286;59.274;17.974;2023-04-19T02:59:42;103245.25;;;1.45;81.75
71476;BME280;59286;59.274;17.974;2023-04-19T03:02:08;103243.63;;;1.44;82.28
71476;BME280;59286;59.274;17.974;2023-04-19T03:04:33;103248.13;;;1.50;82.55
71476;BME280;59286;59.274;17.974;2023-04-19T03:06:58;103233.63;;;1.41;82.30
71476;BME280;59286;59.274;17.974;2023-04-19T03:09:24;103228.09;;;1.44;82.27
71476;BME280;59286;59.274;17.974;2023-04-19T03:11:49;103228.91;;;1.45;82.69
71476;BME280;59286;59.274;17.974;2023-04-19T03:14:15;103242.47;;;1.47;82.49
71476;BME280;59286;59.274;17.974;2023-04-19T03:16:40;103238.28;;;1.46;82.77
71476;BME280;59286;59.274;17.974;2023-04-19T03:19:06;103240.84;;;1.46;83.18
71476;BME280;59286;59.274;17.974;2023-04-19T03:21:31;103235.19;;;1.50;82.64
71476;BME280;59286;59.274;17.974;2023-04-19T03:23:56;103229.38;;;1.48;82.02
71476;BME280;59286;59.274;17.974;2023-04-19T03:26:22;103246.16;;;1.52;82.64
71476;BME280;59286;59.274;17.974;2023-04-19T03:28:47;103237.59;;;1.52;82.58
71476;BME280;59286;59.274;17.974;2023-04-19T03:31:13;103244.72;;;1.50;82.63
71476;BME280;59286;59.274;17.974;2023-04-19T03:33:38;103249.38;;;1.54;82.86
71476;BME280;59286;59.274;17.974;2023-04-19T03:36:04;103244.06;;;1.48;82.37
71476;BME280;59286;59.274;17.974;2023-04-19T03:38:30;103244.88;;;1.48;82.74
71476;BME280;59286;59.274;17.974;2023-04-19T03:40:55;103242.94;;;1.50;82.59
71476;BME280;59286;59.274;17.974;2023-04-19T03:43:22;103244.72;;;1.50;82.21
71476;BME280;59286;59.274;17.974;2023-04-19T03:45:48;103246.63;;;1.56;82.44
71476;BME280;59286;59.274;17.974;2023-04-19T03:48:14;103250.97;;;1.55;82.44
71476;BME280;59286;59.274;17.974;2023-04-19T03:50:39;103239.06;;;1.54;82.15
71476;BME280;59286;59.274;17.974;2023-04-19T03:53:04;103252.22;;;1.67;81.88
71476;BME280;59286;59.274;17.974;2023-04-19T03:55:30;103255.44;;;1.69;82.01
71476;BME280;59286;59.274;17.974;2023-04-19T03:57:56;103254.75;;;1.75;81.79
71476;BME280;59286;59.274;17.974;2023-04-19T04:00:21;103247.63;;;1.77;81.31
71476;BME280;59286;59.274;17.974;2023-04-19T04:02:46;103255.16;;;1.87;81.42
71476;BME280;59286;59.274;17.974;2023-04-19T04:05:12;103249.53;;;1.83;81.17
71476;BME280;59286;59.274;17.974;2023-04-19T04:07:37;103248.72;;;1.83;81.38
71476;BME280;59286;59.274;17.974;2023-04-19T04:10:03;103265.97;;;1.90;81.65
71476;BME280;59286;59.274;17.974;2023-04-19T04:12:29;103254.03;;;1.89;81.37
71476;BME280;59286;59.274;17.974;2023-04-19T04:14:54;103257.81;;;2.02;81.01
71476;BME280;59286;59.274;17.974;2023-04-19T04:17:19;103254.81;;;2.13;80.82
71476;BME280;59286;59.274;17.974;2023-04-19T04:19:45;103252.53;;;2.18;80.20
71476;BME280;59286;59.274;17.974;2023-04-19T04:22:10;103251.50;;;2.27;80.05
71476;BME280;59286;59.274;17.974;2023-04-19T04:24:39;103251.78;;;2.32;79.80
71476;BME280;59286;59.274;17.974;2023-04-19T04:27:08;103250.66;;;2.49;79.30
71476;BME280;59286;59.274;17.974;2023-04-19T04:29:37;103258.38;;;2.57;78.77
71476;BME280;59286;59.274;17.974;2023-04-19T04:32:05;103255.59;;;2.58;78.80
71476;BME280;59286;59.274;17.974;2023-04-19T04:34:32;103243.38;;;2.67;78.69
71476;BME280;59286;59.274;17.974;2023-04-19T04:36:57;103259.38;;;2.85;78.15
71476;BME280;59286;59.274;17.974;2023-04-19T04:39:23;103252.31;;;2.93;77.53
71476;BME280;59286;59.274;17.974;2023-04-19T04:41:48;103255.19;;;3.13;76.83
71476;BME280;59286;59.274;17.974;2023-04-19T04:44:16;103254.56;;;3.26;75.64
71476;BME280;59286;59.274;17.974;2023-04-19T04:46:41;103250.94;;;3.41;75.43
71476;BME280;59286;59.274;17.974;2023-04-19T04:49:06;103258.88;;;3.69;74.62
71476;BME280;59286;59.274;17.974;2023-04-19T04:51:32;103241.81;;;3.81;74.10
71476;BME280;59286;59.274;17.974;2023-04-19T04:53:58;103251.38;;;3.95;72.85
71476;BME280;59286;59.274;17.974;2023-04-19T04:56:23;103259.19;;;4.23;71.83
71476;BME280;59286;59.274;17.974;2023-04-19T04:58:50;103262.56;;;4.44;71.26
71476;BME280;59286;59.274;17.974;2023-04-19T05:01:15;103234.59;;;4.40;70.55
71476;BME280;59286;59.274;17.974;2023-04-19T05:03:43;103262.56;;;4.72;70.08
71476;BME280;59286;59.274;17.974;2023-04-19T05:06:09;103245.19;;;4.72;69.63
71476;BME280;59286;59.274;17.974;2023-04-19T05:08:34;103254.63;;;4.80;69.20
71476;BME280;59286;59.274;17.974;2023-04-19T05:10:59;103262.16;;;5.03;69.18
71476;BME280;59286;59.274;17.974;2023-04-19T05:13:24;103257.66;;;5.24;68.10
71476;BME280;59286;59.274;17.974;2023-04-19T05:15:50;103263.13;;;5.36;67.32
71476;BME280;59286;59.274;17.974;2023-04-19T05:18:15;103259.00;;;5.48;67.07
71476;BME280;59286;59.274;17.974;2023-04-19T05:20:40;103268.03;;;5.58;65.81
71476;BME280;59286;59.274;17.974;2023-04-19T05:23:06;103263.03;;;5.63;66.23
71476;BME280;59286;59.274;17.974;2023-04-19T05:25:32;103268.25;;;5.76;65.64
71476;BME280;59286;59.274;17.974;2023-04-19T05:27:57;103264.97;;;6.09;64.98
71476;BME280;59286;59.274;17.974;2023-04-19T05:30:23;103260.34;;;6.11;64.00
71476;BME280;59286;59.274;17.974;2023-04-19T05:32:48;103264.78;;;6.30;63.50
71476;BME280;59286;59.274;17.974;2023-04-19T05:35:14;103272.59;;;6.30;63.03
71476;BME280;59286;59.274;17.974;2023-04-19T05:37:39;103278.81;;;6.35;63.06
71476;BME280;59286;59.274;17.974;2023-04-19T05:40:06;103264.56;;;6.25;63.01
71476;BME280;59286;59.274;17.974;2023-04-19T05:42:34;103271.19;;;6.34;63.03
71476;BME280;59286;59.274;17.974;2023-04-19T05:44:59;103276.81;;;6.50;63.20
71476;BME280;59286;59.274;17.974;2023-04-19T05:47:24;103277.19;;;6.67;61.79
71476;BME280;59286;59.274;17.974;2023-04-19T05:49:50;103271.78;;;6.75;61.80
71476;BME280;59286;59.274;17.974;2023-04-19T05:52:15;103271.72;;;7.01;61.47
71476;BME280;59286;59.274;17.974;2023-04-19T05:54:40;103269.47;;;7.11;60.29
71476;BME280;59286;59.274;17.974;2023-04-19T05:57:06;103263.28;;;7.12;59.73
71476;BME280;59286;59.274;17.974;2023-04-19T05:59:31;103273.25;;;7.22;59.85
71476;BME280;59286;59.274;17.974;2023-04-19T06:01:56;103275.09;;;7.21;59.49
71476;BME280;59286;59.274;17.974;2023-04-19T06:04:22;103280.47;;;7.26;59.27
71476;BME280;59286;59.274;17.974;2023-04-19T06:06:47;103263.63;;;7.22;58.18
71476;BME280;59286;59.274;17.974;2023-04-19T06:09:12;103261.56;;;7.37;58.12
71476;BME280;59286;59.274;17.974;2023-04-19T06:11:39;103271.19;;;7.43;57.60
71476;BME280;59286;59.274;17.974;2023-04-19T06:14:04;103274.72;;;7.55;57.28
71476;BME280;59286;59.274;17.974;2023-04-19T06:16:30;103266.72;;;7.50;57.25
71476;BME280;59286;59.274;17.974;2023-04-19T06:18:56;103271.38;;;7.79;56.89
71476;BME280;59286;59.274;17.974;2023-04-19T06:21:21;103271.41;;;8.11;56.54
71476;BME280;59286;59.274;17.974;2023-04-19T06:23:46;103278.34;;;8.30;55.20
71476;BME280;59286;59.274;17.974;2023-04-19T06:26:12;103270.34;;;8.18;54.55
71476;BME280;59286;59.274;17.974;2023-04-19T06:28:37;103279.53;;;8.21;54.71
71476;BME280;59286;59.274;17.974;2023-04-19T06:31:03;103272.22;;;8.36;54.39
71476;BME280;59286;59.274;17.974;2023-04-19T06:33:28;103272.56;;;8.46;53.89
71476;BME280;59286;59.274;17.974;2023-04-19T06:35:54;103281.69;;;8.61;54.17
71476;BME280;59286;59.274;17.974;2023-04-19T06:38:19;103287.03;;;8.91;54.05
71476;BME280;59286;59.274;17.974;2023-04-19T06:40:44;103274.44;;;9.00;54.07
71476;BME280;59286;59.274;17.974;2023-04-19T06:43:10;103279.53;;;9.13;52.80
71476;BME280;59286;59.274;17.974;2023-04-19T06:45:35;103270.91;;;9.30;51.21
71476;BME280;59286;59.274;17.974;2023-04-19T06:48:00;103277.56;;;9.44;51.81
71476;BME280;59286;59.274;17.974;2023-04-19T06:50:26;103275.47;;;9.64;51.08
71476;BME280;59286;59.274;17.974;2023-04-19T06:52:52;103276.16;;;9.60;48.93
71476;BME280;59286;59.274;17.974;2023-04-19T06:55:17;103274.81;;;9.39;50.10
71476;BME280;59286;59.274;17.974;2023-04-19T06:57:43;103276.94;;;9.60;50.10
71476;BME280;59286;59.274;17.974;2023-04-19T07:00:09;103279.19;;;9.87;49.68
71476;BME280;59286;59.274;17.974;2023-04-19T07:02:34;103272.59;;;9.84;50.00
71476;BME280;59286;59.274;17.974;2023-04-19T07:05:00;103269.56;;;9.99;49.56
71476;BME280;59286;59.274;17.974;2023-04-19T07:07:25;103271.59;;;9.97;47.71
71476;BME280;59286;59.274;17.974;2023-04-19T07:09:50;103272.53;;;10.02;48.15
71476;BME280;59286;59.274;17.974;2023-04-19T07:12:16;103275.44;;;10.12;47.13
71476;BME280;59286;59.274;17.974;2023-04-19T07:14:41;103267.63;;;10.06;47.30
71476;BME280;59286;59.274;17.974;2023-04-19T07:17:07;103260.06;;;10.16;47.20
71476;BME280;59286;59.274;17.974;2023-04-19T07:19:32;103260.41;;;10.42;48.02
71476;BME280;59286;59.274;17.974;2023-04-19T07:21:59;103263.16;;;10.47;47.60
71476;BME280;59286;59.274;17.974;2023-04-19T07:24:25;103274.53;;;10.76;46.57
71476;BME280;59286;59.274;17.974;2023-04-19T07:26:52;103276.94;;;10.54;46.33
71476;BME280;59286;59.274;17.974;2023-04-19T07:29:17;103270.31;;;10.75;46.85
71476;BME280;59286;59.274;17.974;2023-04-19T07:31:43;103264.59;;;11.01;47.46
71476;BME280;59286;59.274;17.974;2023-04-19T07:34:08;103268.75;;;11.25;44.98
71476;BME280;59286;59.274;17.974;2023-04-19T07:36:34;103265.31;;;11.25;44.98
71476;BME280;59286;59.274;17.974;2023-04-19T07:39:01;103274.38;;;11.45;44.14
71476;BME280;59286;59.274;17.974;2023-04-19T07:41:26;103275.97;;;11.58;44.92
71476;BME280;59286;59.274;17.974;2023-04-19T07:43:52;103267.28;;;11.57;43.09
71476;BME280;59286;59.274;17.974;2023-04-19T07:46:17;103276.28;;;11.33;41.65
71476;BME280;59286;59.274;17.974;2023-04-19T07:48:43;103276.50;;;11.32;42.84
71476;BME280;59286;59.274;17.974;2023-04-19T07:51:13;103270.91;;;11.56;42.77
71476;BME280;59286;59.274;17.974;2023-04-19T07:53:40;103269.09;;;11.68;42.90
71476;BME280;59286;59.274;17.974;2023-04-19T07:56:10;103265.91;;;11.55;42.45
71476;BME280;59286;59.274;17.974;2023-04-19T07:58:36;103266.56;;;11.62;42.68
71476;BME280;59286;59.274;17.974;2023-04-19T08:01:02;103265.25;;;11.48;42.50
71476;BME280;59286;59.274;17.974;2023-04-19T08:03:28;103265.56;;;11.51;41.73
71476;BME280;59286;59.274;17.974;2023-04-19T08:05:54;103262.25;;;11.56;42.68
71476;BME280;59286;59.274;17.974;2023-04-19T08:08:19;103262.63;;;11.48;42.17
71476;BME280;59286;59.274;17.974;2023-04-19T08:10:45;103264.41;;;11.59;42.80
71476;BME280;59286;59.274;17.974;2023-04-19T08:13:10;103249.06;;;11.67;41.64
71476;BME280;59286;59.274;17.974;2023-04-19T08:15:35;103252.41;;;11.63;41.50
71476;BME280;59286;59.274;17.974;2023-04-19T08:18:01;103256.03;;;11.62;41.13
71476;BME280;59286;59.274;17.974;2023-04-19T08:20:29;103249.41;;;11.71;41.71
71476;BME280;59286;59.274;17.974;2023-04-19T08:22:54;103249.28;;;11.78;41.03
71476;BME280;59286;59.274;17.974;2023-04-19T08:25:20;103248.38;;;11.72;41.03
71476;BME280;59286;59.274;17.974;2023-04-19T08:27:47;103245.88;;;11.65;41.68
71476;BME280;59286;59.274;17.974;2023-04-19T08:30:13;103238.69;;;11.61;40.60
71476;BME280;59286;59.274;17.974;2023-04-19T08:32:38;103248.63;;;11.71;40.63
71476;BME280;59286;59.274;17.974;2023-04-19T08:35:04;103249.81;;;11.80;39.56
71476;BME280;59286;59.274;17.974;2023-04-19T08:37:30;103235.50;;;11.59;41.36
71476;BME280;59286;59.274;17.974;2023-04-19T08:39:55;103235.38;;;11.65;40.28
71476;BME280;59286;59.274;17.974;2023-04-19T08:42:20;103249.41;;;11.71;40.50
71476;BME280;59286;59.274;17.974;2023-04-19T08:44:46;103254.16;;;11.86;39.70
71476;BME280;59286;59.274;17.974;2023-04-19T08:47:12;103254.16;;;11.86;39.89
71476;BME280;59286;59.274;17.974;2023-04-19T08:49:40;103249.44;;;11.88;39.86
71476;BME280;59286;59.274;17.974;2023-04-19T08:52:06;103247.91;;;11.92;40.25
71476;BME280;59286;59.274;17.974;2023-04-19T08:54:34;103249.59;;;11.98;40.53
71476;BME280;59286;59.274;17.974;2023-04-19T08:57:00;103253.09;;;12.20;41.04
71476;BME280;59286;59.274;17.974;2023-04-19T08:59:26;103258.38;;;12.20;40.86
71476;BME280;59286;59.274;17.974;2023-04-19T09:01:53;103253.75;;;12.27;39.38
71476;BME280;59286;59.274;17.974;2023-04-19T09:04:20;103252.56;;;12.34;41.11
71476;BME280;59286;59.274;17.974;2023-04-19T09:06:46;103247.06;;;12.36;39.47
71476;BME280;59286;59.274;17.974;2023-04-19T09:09:24;103245.06;;;12.26;38.77
71476;BME280;59286;59.274;17.974;2023-04-19T09:11:51;103240.22;;;12.02;38.87
71476;BME280;59286;59.274;17.974;2023-04-19T09:14:19;103233.13;;;12.19;38.34
71476;BME280;59286;59.274;17.974;2023-04-19T09:16:45;103226.03;;;12.19;36.05
71476;BME280;59286;59.274;17.974;2023-04-19T09:19:10;103243.56;;;12.14;36.04
71476;BME280;59286;59.274;17.974;2023-04-19T09:21:42;103242.28;;;12.00;37.22
71476;BME280;59286;59.274;17.974;2023-04-19T09:24:07;103246.28;;;12.19;37.68
71476;BME280;59286;59.274;17.974;2023-04-19T09:26:34;103227.78;;;12.14;36.50
71476;BME280;59286;59.274;17.974;2023-04-19T09:29:04;103221.41;;;12.10;35.74
71476;BME280;59286;59.274;17.974;2023-04-19T09:31:35;103229.19;;;12.05;36.00
71476;BME280;59286;59.274;17.974;2023-04-19T09:34:11;103226.03;;;12.03;36.38
71476;BME280;59286;59.274;17.974;2023-04-19T09:36:38;103233.34;;;12.34;36.34
71476;BME280;59286;59.274;17.974;2023-04-19T09:39:03;103227.94;;;12.24;37.03
71476;BME280;59286;59.274;17.974;2023-04-19T09:41:30;103236.69;;;12.13;36.51
71476;BME280;59286;59.274;17.974;2023-04-19T09:44:09;103230.19;;;12.15;36.18
71476;BME280;59286;59.274;17.974;2023-04-19T09:46:36;103218.91;;;12.20;36.79
71476;BME280;59286;59.274;17.974;2023-04-19T09:51:46;103225.06;;;12.09;36.13
71476;BME280;59286;59.274;17.974;2023-04-19T09:54:14;103221.56;;;12.20;35.65
71476;BME280;59286;59.274;17.974;2023-04-19T09:56:40;103213.75;;;12.25;36.24
71476;BME280;59286;59.274;17.974;2023-04-19T09:59:06;103224.75;;;12.22;36.12
71476;BME280;59286;59.274;17.974;2023-04-19T10:01:45;103219.47;;;12.22;36.27
71476;BME280;59286;59.274;17.974;2023-04-19T10:04:13;103210.09;;;12.09;36.17
71476;BME280;59286;59.274;17.974;2023-04-19T10:06:50;103215.22;;;12.16;38.03
71476;BME280;59286;59.274;17.974;2023-04-19T10:09:20;103226.56;;;12.38;36.14
71476;BME280;59286;59.274;17.974;2023-04-19T10:11:51;103209.34;;;12.47;35.39
71476;BME280;59286;59.274;17.974;2023-04-19T10:14:23;103210.63;;;12.28;34.83
71476;BME280;59286;59.274;17.974;2023-04-19T10:16:49;103204.69;;;12.16;35.94
71476;BME280;59286;59.274;17.974;2023-04-19T10:19:17;103202.69;;;12.06;36.31
71476;BME280;59286;59.274;17.974;2023-04-19T10:21:44;103204.03;;;12.09;36.53
71476;BME280;59286;59.274;17.974;2023-04-19T10:24:15;103199.56;;;12.26;36.48
71476;BME280;59286;59.274;17.974;2023-04-19T10:32:17;103187.97;;;12.43;35.06
71476;BME280;59286;59.274;17.974;2023-04-19T10:34:44;103202.97;;;12.43;35.68
71476;BME280;59286;59.274;17.974;2023-04-19T10:37:10;103192.28;;;12.33;35.85
71476;BME280;59286;59.274;17.974;2023-04-19T10:39:40;103187.59;;;12.35;36.33
71476;BME280;59286;59.274;17.974;2023-04-19T10:42:06;103192.28;;;12.33;36.42
71476;BME280;59286;59.274;17.974;2023-04-19T10:44:31;103192.38;;;12.38;35.84
71476;BME280;59286;59.274;17.974;2023-04-19T10:46:58;103195.38;;;12.46;36.28
71476;BME280;59286;59.274;17.974;2023-04-19T10:49:23;103183.59;;;12.49;35.79
71476;BME280;59286;59.274;17.974;2023-04-19T10:51:49;103187.44;;;12.41;36.43
71476;BME280;59286;59.274;17.974;2023-04-19T10:54:31;103188.78;;;12.27;36.19
71476;BME280;59286;59.274;17.974;2023-04-19T10:57:02;103188.72;;;12.22;36.15
71476;BME280;59286;59.274;17.974;2023-04-19T10:59:38;103187.69;;;12.07;36.64
71476;BME280;59286;59.274;17.974;2023-04-19T11:07:17;103165.41;;;12.09;36.87
71476;BME280;59286;59.274;17.974;2023-04-19T11:09:47;103166.28;;;12.15;36.58
71476;BME280;59286;59.274;17.974;2023-04-19T11:12:17;103165.44;;;12.31;36.70
71476;BME280;59286;59.274;17.974;2023-04-19T11:17:32;103176.41;;;12.44;36.50
71476;BME280;59286;59.274;17.974;2023-04-19T11:19:59;103163.25;;;12.23;36.26
71476;BME280;59286;59.274;17.974;2023-04-19T11:22:32;103165.91;;;12.06;36.41
71476;BME280;59286;59.274;17.974;2023-04-19T11:27:33;103168.97;;;12.20;36.61
71476;BME280;59286;59.274;17.974;2023-04-19T11:30:07;103171.59;;;12.20;36.01
71476;BME280;59286;59.274;17.974;2023-04-19T11:32:33;103167.69;;;12.22;36.05
71476;BME280;59286;59.274;17.974;2023-04-19T11:35:08;103172.66;;;12.19;36.29
71476;BME280;59286;59.274;17.974;2023-04-19T11:37:38;103170.72;;;12.14;36.22
71476;BME280;59286;59.274;17.974;2023-04-19T11:40:05;103166.13;;;12.21;36.91
71476;BME280;59286;59.274;17.974;2023-04-19T11:42:32;103180.75;;;12.34;36.82
71476;BME280;59286;59.274;17.974;2023-04-19T11:44:58;103165.44;;;12.31;36.49
71476;BME280;59286;59.274;17.974;2023-04-19T11:47:24;103170.34;;;12.44;37.03
71476;BME280;59286;59.274;17.974;2023-04-19T11:49:50;103163.44;;;12.38;35.81
71476;BME280;59286;59.274;17.974;2023-04-19T11:52:23;103166.78;;;12.33;36.20
71476;BME280;59286;59.274;17.974;2023-04-19T11:54:52;103164.19;;;12.17;36.71
71476;BME280;59286;59.274;17.974;2023-04-19T11:57:30;103154.44;;;12.34;37.40
71476;BME280;59286;59.274;17.974;2023-04-19T12:00:08;103141.53;;;12.32;35.84
71476;BME280;59286;59.274;17.974;2023-04-19T12:02:38;103154.69;;;12.32;36.25
71476;BME280;59286;59.274;17.974;2023-04-19T12:05:12;103140.13;;;12.25;36.23
71476;BME280;59286;59.274;17.974;2023-04-19T12:08:01;103169.59;;;12.27;36.50
71476;BME280;59286;59.274;17.974;2023-04-19T12:10:27;103160.75;;;12.16;36.09
71476;BME280;59286;59.274;17.974;2023-04-19T12:12:52;103146.91;;;12.21;36.86
71476;BME280;59286;59.274;17.974;2023-04-19T12:15:18;103141.09;;;12.19;37.37
71476;BME280;59286;59.274;17.974;2023-04-19T12:18:00;103138.47;;;12.19;36.28
71476;BME280;59286;59.274;17.974;2023-04-19T12:20:33;103145.25;;;12.36;36.24
71476;BME280;59286;59.274;17.974;2023-04-19T12:22:59;103141.34;;;12.39;36.15
71476;BME280;59286;59.274;17.974;2023-04-19T12:25:32;103149.28;;;12.44;36.06
71476;BME280;59286;59.274;17.974;2023-04-19T12:27:59;103133.81;;;12.26;36.10
71476;BME280;59286;59.274;17.974;2023-04-19T12:30:24;103147.31;;;12.13;36.64
71476;BME280;59286;59.274;17.974;2023-04-19T12:32:51;103144.75;;;12.18;36.88
71476;BME280;59286;59.274;17.974;2023-04-19T12:35:22;103135.38;;;12.05;36.24
71476;BME280;59286;59.274;17.974;2023-04-19T12:37:48;103150.16;;;12.28;36.38
71476;BME280;59286;59.274;17.974;2023-04-19T12:40:14;103139.97;;;12.15;35.78
71476;BME280;59286;59.274;17.974;2023-04-19T12:42:39;103142.03;;;12.13;36.69
71476;BME280;59286;59.274;17.974;2023-04-19T12:45:05;103122.63;;;12.14;36.63
71476;BME280;59286;59.274;17.974;2023-04-19T12:47:31;103128.97;;;12.18;36.50
71476;BME280;59286;59.274;17.974;2023-04-19T12:49:56;103117.47;;;12.24;36.83
71476;BME280;59286;59.274;17.974;2023-04-19T12:52:22;103138.09;;;12.32;36.71
71476;BME280;59286;59.274;17.974;2023-04-19T12:54:47;103117.19;;;12.20;36.77
71476;BME280;59286;59.274;17.974;2023-04-19T12:57:12;103108.97;;;12.17;36.50
71476;BME280;59286;59.274;17.974;2023-04-19T12:59:38;103115.75;;;12.13;36.42
71476;BME280;59286;59.274;17.974;2023-04-19T13:02:04;103119.28;;;12.02;36.76